sensor_id;sensor_type;location;lat;lon;timestamp;pressure;altitude;pressure_sealevel;temperature;humidity
48792;BME280;34587;48.816;9.420;2023-04-24T04:15:41;97736.59;;;10.85;82.16
48792;BME280;34587;48.816;9.420;2023-04-24T04:18:06;97745.88;;;10.90;81.79
48792;BME280;34587;48.816;9.420;2023-04-24T04:20:31;97746.81;;;10.88;81.86
48792;BME280;34587;48.816;9.420;2023-04-24T04:22:57;97747.69;;;10.88;82.36
48792;BME280;34587;48.816;9.420;2023-04-24T04:25:22;97744.38;;;10.85;82.43
48792;BME280;34587;48.816;9.420;2023-04-24T04:27:48;97754.34;;;10.95;81.86
48792;BME280;34587;48.816;9.420;2023-04-24T04:30:14;97755.94;;;10.99;81.33
48792;BME280;34587;48.816;9.420;2023-04-24T04:32:39;97754.09;;;11.01;81.59
48792;BME280;34587;48.816;9.420;2023-04-24T04:35:04;97765.63;;;10.94;81.71
48792;BME280;34587;48.816;9.420;2023-04-24T04:37:31;97762.28;;;10.91;82.15
48792;BME280;34587;48.816;9.420;2023-04-24T04:39:59;97768.06;;;10.97;81.08
48792;BME280;34587;48.816;9.420;2023-04-24T04:42:26;97785.44;;;10.95;81.80
48792;BME280;34587;48.816;9.420;2023-04-24T04:44:52;97788.94;;;10.94;79.97
48792;BME280;34587;48.816;9.420;2023-04-24T04:47:18;97803.31;;;10.78;82.81
48792;BME280;34587;48.816;9.420;2023-04-24T04:49:46;97820.97;;;10.67;83.06
48792;BME280;34587;48.816;9.420;2023-04-24T04:52:12;97819.59;;;10.57;85.41
48792;BME280;34587;48.816;9.420;2023-04-24T04:54:37;97819.81;;;10.50;86.55
48792;BME280;34587;48.816;9.420;2023-04-24T04:57:02;97826.69;;;10.51;86.27
48792;BME280;34587;48.816;9.420;2023-04-24T04:59:28;97826.72;;;10.50;85.58
48792;BME280;34587;48.816;9.420;2023-04-24T05:01:54;97835.34;;;10.50;85.31
48792;BME280;34587;48.816;9.420;2023-04-24T05:04:19;97842.41;;;10.45;85.32
48792;BME280;34587;48.816;9.420;2023-04-24T05:06:44;97840.41;;;10.53;85.83
48792;BME280;34587;48.816;9.420;2023-04-24T05:09:10;97844.41;;;10.37;85.09
48792;BME280;34587;48.816;9.420;2023-04-24T05:11:35;97850.78;;;10.27;84.66
48792;BME280;34587;48.816;9.420;2023-04-24T05:14:01;97854.06;;;10.32;81.23
48792;BME280;34587;48.816;9.420;2023-04-24T05:16:26;97859.31;;;10.29;80.49
48792;BME280;34587;48.816;9.420;2023-04-24T05:18:51;97860.31;;;10.25;80.87
48792;BME280;34587;48.816;9.420;2023-04-24T05:21:17;97861.06;;;10.28;81.26
48792;BME280;34587;48.816;9.420;2023-04-24T05:23:42;97866.22;;;10.30;80.00
48792;BME280;34587;48.816;9.420;2023-04-24T05:26:08;97870.50;;;10.31;80.51
48792;BME280;34587;48.816;9.420;2023-04-24T05:28:33;97869.25;;;10.43;80.00
48792;BME280;34587;48.816;9.420;2023-04-24T05:30:58;97876.41;;;10.35;80.79
48792;BME280;34587;48.816;9.420;2023-04-24T05:33:24;97885.00;;;10.37;80.82
48792;BME280;34587;48.816;9.420;2023-04-24T05:35:50;97884.34;;;10.30;81.38
48792;BME280;34587;48.816;9.420;2023-04-24T05:38:15;97890.63;;;10.21;81.71
48792;BME280;34587;48.816;9.420;2023-04-24T05:40:43;97889.78;;;10.21;81.01
48792;BME280;34587;48.816;9.420;2023-04-24T05:43:08;97898.28;;;10.26;81.36
48792;BME280;34587;48.816;9.420;2023-04-24T05:45:33;97897.53;;;10.21;80.26
48792;BME280;34587;48.816;9.420;2023-04-24T05:48:01;97905.06;;;10.30;81.30
48792;BME280;34587;48.816;9.420;2023-04-24T05:50:26;97908.53;;;10.29;80.99
48792;BME280;34587;48.816;9.420;2023-04-24T05:52:51;97906.56;;;10.37;82.05
48792;BME280;34587;48.816;9.420;2023-04-24T05:55:17;97920.00;;;10.48;80.20
48792;BME280;34587;48.816;9.420;2023-04-24T05:57:42;97921.81;;;10.46;80.18
48792;BME280;34587;48.816;9.420;2023-04-24T06:00:08;97929.34;;;10.54;80.07
48792;BME280;34587;48.816;9.420;2023-04-24T06:02:33;97936.16;;;10.57;79.72
48792;BME280;34587;48.816;9.420;2023-04-24T06:04:59;97938.78;;;10.83;77.89
48792;BME280;34587;48.816;9.420;2023-04-24T06:07:25;97942.06;;;10.88;77.42
48792;BME280;34587;48.816;9.420;2023-04-24T06:09:51;97943.06;;;10.84;76.69
48792;BME280;34587;48.816;9.420;2023-04-24T06:12:17;97935.84;;;10.92;77.56
48792;BME280;34587;48.816;9.420;2023-04-24T06:14:42;97936.66;;;10.94;77.93
48792;BME280;34587;48.816;9.420;2023-04-24T06:17:08;97945.06;;;11.01;78.51
48792;BME280;34587;48.816;9.420;2023-04-24T06:19:33;97944.94;;;11.05;76.58
48792;BME280;34587;48.816;9.420;2023-04-24T06:21:58;97945.50;;;10.89;77.28
48792;BME280;34587;48.816;9.420;2023-04-24T06:24:27;97937.66;;;10.90;76.08
48792;BME280;34587;48.816;9.420;2023-04-24T06:26:52;97937.97;;;11.07;76.50
48792;BME280;34587;48.816;9.420;2023-04-24T06:29:18;97943.75;;;10.89;76.15
48792;BME280;34587;48.816;9.420;2023-04-24T06:31:43;97936.56;;;10.97;76.65
48792;BME280;34587;48.816;9.420;2023-04-24T06:34:08;97936.75;;;11.18;76.80
48792;BME280;34587;48.816;9.420;2023-04-24T06:36:34;97936.63;;;11.46;73.44
48792;BME280;34587;48.816;9.420;2023-04-24T06:39:00;97936.78;;;11.91;71.21
48792;BME280;34587;48.816;9.420;2023-04-24T06:41:26;97934.19;;;11.91;71.10
48792;BME280;34587;48.816;9.420;2023-04-24T06:43:51;97926.34;;;12.38;69.64
48792;BME280;34587;48.816;9.420;2023-04-24T06:46:16;97923.59;;;12.41;68.69
48792;BME280;34587;48.816;9.420;2023-04-24T06:48:42;97917.88;;;13.79;64.65
48792;BME280;34587;48.816;9.420;2023-04-24T06:51:07;97903.66;;;14.96;60.38
48792;BME280;34587;48.816;9.420;2023-04-24T06:53:33;97897.41;;;17.67;50.59
48792;BME280;34587;48.816;9.420;2023-04-24T06:55:58;97896.41;;;18.40;48.10
48792;BME280;34587;48.816;9.420;2023-04-24T06:58:24;97903.91;;;18.32;47.66
48792;BME280;34587;48.816;9.420;2023-04-24T07:00:50;97914.09;;;19.17;45.11
48792;BME280;34587;48.816;9.420;2023-04-24T07:03:15;97915.88;;;19.69;43.76
48792;BME280;34587;48.816;9.420;2023-04-24T07:05:41;97927.75;;;17.86;46.89
48792;BME280;34587;48.816;9.420;2023-04-24T07:08:06;97920.81;;;18.13;47.89
48792;BME280;34587;48.816;9.420;2023-04-24T07:10:32;97916.50;;;17.98;47.42
48792;BME280;34587;48.816;9.420;2023-04-24T07:12:59;97924.53;;;17.66;47.55
48792;BME280;34587;48.816;9.420;2023-04-24T07:15:24;97927.28;;;16.11;51.92
48792;BME280;34587;48.816;9.420;2023-04-24T07:17:50;97912.28;;;17.67;47.66
48792;BME280;34587;48.816;9.420;2023-04-24T07:20:15;97912.13;;;19.34;43.47
48792;BME280;34587;48.816;9.420;2023-04-24T07:22:40;97913.47;;;19.14;42.85
48792;BME280;34587;48.816;9.420;2023-04-24T07:25:06;97909.09;;;20.03;41.17
48792;BME280;34587;48.816;9.420;2023-04-24T07:27:33;97910.31;;;18.28;44.05
48792;BME280;34587;48.816;9.420;2023-04-24T07:29:58;97920.13;;;16.47;48.63
48792;BME280;34587;48.816;9.420;2023-04-24T07:32:24;97921.28;;;14.91;52.64
48792;BME280;34587;48.816;9.420;2023-04-24T07:34:49;97931.66;;;13.81;55.12
48792;BME280;34587;48.816;9.420;2023-04-24T07:37:14;97941.09;;;13.02;58.36
48792;BME280;34587;48.816;9.420;2023-04-24T07:39:39;97942.56;;;12.65;60.30
48792;BME280;34587;48.816;9.420;2023-04-24T07:42:05;97951.38;;;12.17;62.26
48792;BME280;34587;48.816;9.420;2023-04-24T07:44:31;97952.09;;;11.97;63.90
48792;BME280;34587;48.816;9.420;2023-04-24T07:46:57;97951.31;;;12.19;63.67
48792;BME280;34587;48.816;9.420;2023-04-24T07:49:22;97951.28;;;12.64;62.18
48792;BME280;34587;48.816;9.420;2023-04-24T07:51:49;97949.72;;;12.82;60.76
48792;BME280;34587;48.816;9.420;2023-04-24T07:54:14;97955.56;;;13.29;59.31
48792;BME280;34587;48.816;9.420;2023-04-24T07:56:40;97947.84;;;14.44;56.17
48792;BME280;34587;48.816;9.420;2023-04-24T07:59:08;97952.47;;;13.81;57.35
48792;BME280;34587;48.816;9.420;2023-04-24T08:01:34;97955.22;;;14.17;57.85
48792;BME280;34587;48.816;9.420;2023-04-24T08:04:00;97957.53;;;15.49;52.69
48792;BME280;34587;48.816;9.420;2023-04-24T08:06:25;97954.47;;;15.24;52.53
48792;BME280;34587;48.816;9.420;2023-04-24T08:08:55;97984.66;;;13.59;54.20
48792;BME280;34587;48.816;9.420;2023-04-24T08:11:20;97988.19;;;12.50;53.53
48792;BME280;34587;48.816;9.420;2023-04-24T08:13:46;97989.53;;;12.39;54.96
48792;BME280;34587;48.816;9.420;2023-04-24T08:16:11;97994.25;;;12.27;53.78
48792;BME280;34587;48.816;9.420;2023-04-24T08:18:36;97992.72;;;12.45;53.95
48792;BME280;34587;48.816;9.420;2023-04-24T08:21:02;97992.72;;;12.45;53.30
48792;BME280;34587;48.816;9.420;2023-04-24T08:23:27;97997.81;;;12.48;53.22
48792;BME280;34587;48.816;9.420;2023-04-24T08:25:54;98000.50;;;12.69;53.07
48792;BME280;34587;48.816;9.420;2023-04-24T08:28:20;97991.91;;;12.89;51.46
48792;BME280;34587;48.816;9.420;2023-04-24T08:30:46;98009.41;;;12.61;52.09
48792;BME280;34587;48.816;9.420;2023-04-24T08:33:13;98014.53;;;12.41;51.50
48792;BME280;34587;48.816;9.420;2023-04-24T08:35:38;98019.19;;;12.33;52.79
48792;BME280;34587;48.816;9.420;2023-04-24T08:38:04;98010.63;;;12.53;51.19
48792;BME280;34587;48.816;9.420;2023-04-24T08:40:34;98018.19;;;12.59;51.34
48792;BME280;34587;48.816;9.420;2023-04-24T08:42:59;98006.78;;;14.48;46.08
48792;BME280;34587;48.816;9.420;2023-04-24T08:45:25;98014.31;;;15.09;45.93
48792;BME280;34587;48.816;9.420;2023-04-24T08:47:52;98007.97;;;16.98;42.27
48792;BME280;34587;48.816;9.420;2023-04-24T08:50:20;98000.91;;;18.60;38.07
48792;BME280;34587;48.816;9.420;2023-04-24T08:52:47;98023.66;;;16.98;41.40
48792;BME280;34587;48.816;9.420;2023-04-24T08:55:12;98026.16;;;17.15;42.78
48792;BME280;34587;48.816;9.420;2023-04-24T08:57:39;98017.22;;;18.80;39.67
48792;BME280;34587;48.816;9.420;2023-04-24T09:00:07;98020.66;;;17.36;43.60
48792;BME280;34587;48.816;9.420;2023-04-24T09:02:32;98022.94;;;15.81;46.29
48792;BME280;34587;48.816;9.420;2023-04-24T09:05:00;98026.38;;;14.76;47.81
48792;BME280;34587;48.816;9.420;2023-04-24T09:07:27;98036.59;;;13.62;50.35
48792;BME280;34587;48.816;9.420;2023-04-24T09:09:52;98031.06;;;13.50;51.25
48792;BME280;34587;48.816;9.420;2023-04-24T09:12:18;98046.25;;;12.73;52.14
48792;BME280;34587;48.816;9.420;2023-04-24T09:14:44;98037.69;;;12.47;54.35
48792;BME280;34587;48.816;9.420;2023-04-24T09:17:10;98042.66;;;12.30;55.15
48792;BME280;34587;48.816;9.420;2023-04-24T09:19:36;98044.03;;;12.40;55.42
48792;BME280;34587;48.816;9.420;2023-04-24T09:22:04;98043.03;;;12.66;53.68
48792;BME280;34587;48.816;9.420;2023-04-24T09:24:30;98046.84;;;12.57;52.50
48792;BME280;34587;48.816;9.420;2023-04-24T09:26:57;98048.22;;;12.66;52.49
48792;BME280;34587;48.816;9.420;2023-04-24T09:29:23;98050.56;;;12.50;52.33
48792;BME280;34587;48.816;9.420;2023-04-24T09:31:49;98054.41;;;12.17;53.68
48792;BME280;34587;48.816;9.420;2023-04-24T09:34:21;98065.13;;;11.82;54.22
48792;BME280;34587;48.816;9.420;2023-04-24T09:36:47;98064.56;;;11.73;55.08
48792;BME280;34587;48.816;9.420;2023-04-24T09:39:15;98071.94;;;11.33;56.27
48792;BME280;34587;48.816;9.420;2023-04-24T09:41:54;98086.53;;;11.36;56.94
48792;BME280;34587;48.816;9.420;2023-04-24T09:44:24;98100.81;;;11.23;59.44
48792;BME280;34587;48.816;9.420;2023-04-24T09:46:59;98103.25;;;10.99;59.57
48792;BME280;34587;48.816;9.420;2023-04-24T09:49:30;98095.34;;;11.32;59.43
48792;BME280;34587;48.816;9.420;2023-04-24T09:52:07;98108.59;;;11.49;59.65
48792;BME280;34587;48.816;9.420;2023-04-24T09:54:32;98106.81;;;11.51;61.49
48792;BME280;34587;48.816;9.420;2023-04-24T09:56:58;98101.78;;;11.47;61.40
48792;BME280;34587;48.816;9.420;2023-04-24T09:59:25;98102.88;;;11.65;61.46
48792;BME280;34587;48.816;9.420;2023-04-24T10:01:50;98098.63;;;12.15;60.57
48792;BME280;34587;48.816;9.420;2023-04-24T10:04:19;98100.28;;;12.65;57.65
48792;BME280;34587;48.816;9.420;2023-04-24T10:06:45;98096.03;;;14.14;53.72
48792;BME280;34587;48.816;9.420;2023-04-24T10:09:10;98088.25;;;15.98;47.58
48792;BME280;34587;48.816;9.420;2023-04-24T10:11:46;98104.53;;;14.96;49.10
48792;BME280;34587;48.816;9.420;2023-04-24T10:14:17;98103.13;;;14.10;49.73
48792;BME280;34587;48.816;9.420;2023-04-24T10:16:42;98112.03;;;13.42;52.75
48792;BME280;34587;48.816;9.420;2023-04-24T10:19:09;98114.91;;;13.12;51.73
48792;BME280;34587;48.816;9.420;2023-04-24T10:21:35;98116.97;;;13.04;51.99
48792;BME280;34587;48.816;9.420;2023-04-24T10:24:07;98112.94;;;12.74;52.45
48792;BME280;34587;48.816;9.420;2023-04-24T10:26:34;98106.31;;;12.89;50.77
48792;BME280;34587;48.816;9.420;2023-04-24T10:28:59;98116.59;;;13.37;50.90
48792;BME280;34587;48.816;9.420;2023-04-24T10:31:26;98121.94;;;13.10;49.24
48792;BME280;34587;48.816;9.420;2023-04-24T10:33:53;98109.97;;;13.50;49.28
48792;BME280;34587;48.816;9.420;2023-04-24T10:36:21;98110.75;;;14.54;47.36
48792;BME280;34587;48.816;9.420;2023-04-24T10:38:48;98095.63;;;15.36;44.56
48792;BME280;34587;48.816;9.420;2023-04-24T10:41:17;98081.31;;;19.58;36.52
48792;BME280;34587;48.816;9.420;2023-04-24T10:43:45;98088.59;;;20.58;35.56
48792;BME280;34587;48.816;9.420;2023-04-24T10:46:19;98101.84;;;17.36;37.92
48792;BME280;34587;48.816;9.420;2023-04-24T10:48:53;98124.59;;;14.15;43.07
48792;BME280;34587;48.816;9.420;2023-04-24T10:51:21;98112.22;;;13.80;44.59
48792;BME280;34587;48.816;9.420;2023-04-24T10:53:49;98116.50;;;13.38;44.88
48792;BME280;34587;48.816;9.420;2023-04-24T10:56:16;98116.50;;;13.17;46.37
48792;BME280;34587;48.816;9.420;2023-04-24T10:58:43;98122.41;;;12.98;47.15
48792;BME280;34587;48.816;9.420;2023-04-24T11:01:28;98124.84;;;12.56;47.74
48792;BME280;34587;48.816;9.420;2023-04-24T11:03:56;98124.69;;;12.12;48.95
48792;BME280;34587;48.816;9.420;2023-04-24T11:06:37;98134.75;;;11.96;48.59
48792;BME280;34587;48.816;9.420;2023-04-24T11:09:04;98130.31;;;12.25;48.92
48792;BME280;34587;48.816;9.420;2023-04-24T11:11:31;98139.84;;;12.24;48.55
48792;BME280;34587;48.816;9.420;2023-04-24T11:19:01;98144.69;;;12.58;48.47
48792;BME280;34587;48.816;9.420;2023-04-24T11:21:31;98149.22;;;12.77;47.73
48792;BME280;34587;48.816;9.420;2023-04-24T11:23:58;98147.63;;;12.49;49.88
48792;BME280;34587;48.816;9.420;2023-04-24T11:26:23;98146.03;;;12.45;49.62
48792;BME280;34587;48.816;9.420;2023-04-24T11:29:06;98147.81;;;12.92;48.42
48792;BME280;34587;48.816;9.420;2023-04-24T11:31:39;98152.94;;;12.70;47.97
48792;BME280;34587;48.816;9.420;2023-04-24T11:34:11;98155.63;;;12.43;49.20
48792;BME280;34587;48.816;9.420;2023-04-24T11:36:38;98161.25;;;12.31;50.00
48792;BME280;34587;48.816;9.420;2023-04-24T11:39:04;98166.00;;;12.18;50.24
48792;BME280;34587;48.816;9.420;2023-04-24T11:41:30;98163.06;;;12.04;50.49
48792;BME280;34587;48.816;9.420;2023-04-24T11:43:56;98161.16;;;12.34;50.64
48792;BME280;34587;48.816;9.420;2023-04-24T11:46:21;98161.63;;;12.69;48.90
48792;BME280;34587;48.816;9.420;2023-04-24T11:48:47;98166.59;;;12.75;47.52
48792;BME280;34587;48.816;9.420;2023-04-24T11:51:13;98170.22;;;12.71;47.53
48792;BME280;34587;48.816;9.420;2023-04-24T11:53:38;98172.03;;;12.69;47.12
48792;BME280;34587;48.816;9.420;2023-04-24T11:56:04;98171.56;;;12.81;46.81
48792;BME280;34587;48.816;9.420;2023-04-24T11:58:35;98175.53;;;12.68;47.59
48792;BME280;34587;48.816;9.420;2023-04-24T12:01:00;98166.59;;;12.75;47.39
48792;BME280;34587;48.816;9.420;2023-04-24T12:03:26;98171.25;;;12.90;48.13
48792;BME280;34587;48.816;9.420;2023-04-24T12:05:51;98169.38;;;12.70;48.36
48792;BME280;34587;48.816;9.420;2023-04-24T12:08:29;98170.31;;;12.44;49.57
48792;BME280;34587;48.816;9.420;2023-04-24T12:10:55;98180.94;;;12.38;50.41
48792;BME280;34587;48.816;9.420;2023-04-24T12:13:21;98175.69;;;12.15;50.86
48792;BME280;34587;48.816;9.420;2023-04-24T12:15:46;98187.91;;;12.11;51.60
48792;BME280;34587;48.816;9.420;2023-04-24T12:18:12;98193.56;;;11.97;52.17
48792;BME280;34587;48.816;9.420;2023-04-24T12:20:38;98197.53;;;11.81;56.23
48792;BME280;34587;48.816;9.420;2023-04-24T12:23:03;98195.34;;;12.22;55.48
48792;BME280;34587;48.816;9.420;2023-04-24T12:25:32;98197.94;;;12.72;54.46
48792;BME280;34587;48.816;9.420;2023-04-24T12:30:39;98201.38;;;12.96;51.08
48792;BME280;34587;48.816;9.420;2023-04-24T12:33:04;98197.06;;;12.71;50.34
48792;BME280;34587;48.816;9.420;2023-04-24T12:35:31;98198.63;;;12.77;50.28
48792;BME280;34587;48.816;9.420;2023-04-24T12:38:16;98187.75;;;13.12;49.84
48792;BME280;34587;48.816;9.420;2023-04-24T12:40:43;98189.09;;;12.76;49.87
48792;BME280;34587;48.816;9.420;2023-04-24T12:43:16;98184.63;;;12.31;51.24
48792;BME280;34587;48.816;9.420;2023-04-24T12:45:41;98187.22;;;12.06;50.92
48792;BME280;34587;48.816;9.420;2023-04-24T12:48:07;98180.28;;;12.06;50.99
48792;BME280;34587;48.816;9.420;2023-04-24T12:50:32;98187.66;;;12.19;51.52
48792;BME280;34587;48.816;9.420;2023-04-24T12:52:57;98185.44;;;12.33;51.63
48792;BME280;34587;48.816;9.420;2023-04-24T12:55:23;98186.50;;;12.52;50.78
48792;BME280;34587;48.816;9.420;2023-04-24T12:57:48;98188.19;;;12.28;49.52
48792;BME280;34587;48.816;9.420;2023-04-24T13:00:14;98192.50;;;12.28;49.82
48792;BME280;34587;48.816;9.420;2023-04-24T13:02:39;98184.84;;;12.00;49.98
48792;BME280;34587;48.816;9.420;2023-04-24T13:05:05;98192.94;;;12.16;50.74
48792;BME280;34587;48.816;9.420;2023-04-24T13:07:30;98195.28;;;12.48;50.42
48792;BME280;34587;48.816;9.420;2023-04-24T13:09:56;98186.38;;;12.55;49.82
48792;BME280;34587;48.816;9.420;2023-04-24T13:12:22;98203.66;;;12.56;49.87
48792;BME280;34587;48.816;9.420;2023-04-24T13:14:49;98190.19;;;12.45;50.49
48792;BME280;34587;48.816;9.420;2023-04-24T13:17:14;98189.97;;;12.26;51.28
48792;BME280;34587;48.816;9.420;2023-04-24T13:19:41;98198.97;;;11.91;54.75
48792;BME280;34587;48.816;9.420;2023-04-24T13:22:10;98212.56;;;11.14;60.25
48792;BME280;34587;48.816;9.420;2023-04-24T13:24:36;98211.59;;;10.88;60.82
48792;BME280;34587;48.816;9.420;2023-04-24T13:27:02;98228.94;;;10.53;65.62
48792;BME280;34587;48.816;9.420;2023-04-24T13:29:28;98227.78;;;10.33;67.33
48792;BME280;34587;48.816;9.420;2023-04-24T13:31:54;98235.66;;;10.28;69.90
48792;BME280;34587;48.816;9.420;2023-04-24T13:34:24;98234.03;;;10.57;69.99
48792;BME280;34587;48.816;9.420;2023-04-24T13:36:53;98216.66;;;11.21;68.60
48792;BME280;34587;48.816;9.420;2023-04-24T13:39:19;98212.63;;;11.96;66.61
48792;BME280;34587;48.816;9.420;2023-04-24T13:41:44;98207.78;;;12.37;63.20
48792;BME280;34587;48.816;9.420;2023-04-24T13:44:12;98202.19;;;12.49;63.90
48792;BME280;34587;48.816;9.420;2023-04-24T13:46:37;98193.47;;;12.50;63.15
48792;BME280;34587;48.816;9.420;2023-04-24T13:49:02;98202.25;;;11.96;60.75
48792;BME280;34587;48.816;9.420;2023-04-24T13:51:28;98195.13;;;12.28;59.93
48792;BME280;34587;48.816;9.420;2023-04-24T13:53:54;98193.56;;;12.47;57.73
48792;BME280;34587;48.816;9.420;2023-04-24T13:56:20;98188.59;;;12.90;58.45
48792;BME280;34587;48.816;9.420;2023-04-24T13:58:45;98185.00;;;13.39;57.29
48792;BME280;34587;48.816;9.420;2023-04-24T14:01:11;98190.94;;;12.97;57.31
48792;BME280;34587;48.816;9.420;2023-04-24T14:03:37;98191.34;;;12.61;56.67
48792;BME280;34587;48.816;9.420;2023-04-24T14:06:02;98192.41;;;12.31;57.27
48792;BME280;34587;48.816;9.420;2023-04-24T14:08:28;98186.47;;;12.02;56.57
48792;BME280;34587;48.816;9.420;2023-04-24T14:10:53;98190.66;;;11.80;57.45
48792;BME280;34587;48.816;9.420;2023-04-24T14:13:19;98202.63;;;11.84;57.43
48792;BME280;34587;48.816;9.420;2023-04-24T14:15:45;98228.84;;;11.19;60.20
48792;BME280;34587;48.816;9.420;2023-04-24T14:18:10;98230.25;;;10.70;67.27
48792;BME280;34587;48.816;9.420;2023-04-24T14:20:35;98231.94;;;10.71;67.91
48792;BME280;34587;48.816;9.420;2023-04-24T14:23:01;98235.19;;;10.79;67.51
48792;BME280;34587;48.816;9.420;2023-04-24T14:25:26;98223.78;;;11.72;66.67
48792;BME280;34587;48.816;9.420;2023-04-24T14:27:51;98225.56;;;11.98;64.32
48792;BME280;34587;48.816;9.420;2023-04-24T14:30:18;98217.13;;;12.68;61.72
48792;BME280;34587;48.816;9.420;2023-04-24T14:32:43;98213.13;;;13.29;61.71
48792;BME280;34587;48.816;9.420;2023-04-24T14:35:08;98220.03;;;13.76;60.36
48792;BME280;34587;48.816;9.420;2023-04-24T14:37:34;98209.13;;;13.66;58.21
48792;BME280;34587;48.816;9.420;2023-04-24T14:40:00;98211.91;;;13.61;58.32
48792;BME280;34587;48.816;9.420;2023-04-24T14:42:26;98209.84;;;13.26;58.22
48792;BME280;34587;48.816;9.420;2023-04-24T14:44:51;98205.69;;;13.20;58.11
48792;BME280;34587;48.816;9.420;2023-04-24T14:47:16;98207.31;;;12.99;57.52
48792;BME280;34587;48.816;9.420;2023-04-24T14:49:43;98213.00;;;13.09;57.04
48792;BME280;34587;48.816;9.420;2023-04-24T14:52:09;98211.38;;;13.06;57.00
48792;BME280;34587;48.816;9.420;2023-04-24T14:54:34;98219.72;;;13.83;55.88
48792;BME280;34587;48.816;9.420;2023-04-24T14:57:00;98208.00;;;13.28;55.15
48792;BME280;34587;48.816;9.420;2023-04-24T14:59:27;98210.38;;;13.10;53.64
48792;BME280;34587;48.816;9.420;2023-04-24T15:01:52;98209.94;;;13.23;53.78
48792;BME280;34587;48.816;9.420;2023-04-24T15:04:23;98200.53;;;13.42;52.58
48792;BME280;34587;48.816;9.420;2023-04-24T15:06:50;98202.09;;;12.99;54.38
48792;BME280;34587;48.816;9.420;2023-04-24T15:09:15;98212.28;;;12.57;54.47
48792;BME280;34587;48.816;9.420;2023-04-24T15:11:41;98203.09;;;12.48;55.66
48792;BME280;34587;48.816;9.420;2023-04-24T15:14:06;98210.38;;;12.37;55.07
48792;BME280;34587;48.816;9.420;2023-04-24T15:16:31;98204.94;;;12.45;55.81
48792;BME280;34587;48.816;9.420;2023-04-24T15:18:57;98200.72;;;12.66;55.27
48792;BME280;34587;48.816;9.420;2023-04-24T15:21:22;98201.75;;;13.55;53.88
48792;BME280;34587;48.816;9.420;2023-04-24T15:23:47;98204.97;;;14.45;51.49
48792;BME280;34587;48.816;9.420;2023-04-24T15:26:13;98211.38;;;14.18;51.72
48792;BME280;34587;48.816;9.420;2023-04-24T15:28:38;98210.69;;;13.26;54.00
48792;BME280;34587;48.816;9.420;2023-04-24T15:31:03;98216.94;;;12.49;54.71
48792;BME280;34587;48.816;9.420;2023-04-24T15:33:28;98213.00;;;12.37;55.43
48792;BME280;34587;48.816;9.420;2023-04-24T15:35:54;98219.69;;;12.19;57.33
48792;BME280;34587;48.816;9.420;2023-04-24T15:38:19;98222.44;;;12.15;56.13
48792;BME280;34587;48.816;9.420;2023-04-24T15:40:44;98218.91;;;12.16;55.58
48792;BME280;34587;48.816;9.420;2023-04-24T15:43:10;98220.28;;;12.01;55.80
48792;BME280;34587;48.816;9.420;2023-04-24T15:45:36;98204.75;;;11.99;55.48
48792;BME280;34587;48.816;9.420;2023-04-24T15:48:01;98209.31;;;12.18;56.08
48792;BME280;34587;48.816;9.420;2023-04-24T15:50:26;98210.13;;;12.20;56.00
48792;BME280;34587;48.816;9.420;2023-04-24T15:52:52;98215.63;;;12.11;55.87
48792;BME280;34587;48.816;9.420;2023-04-24T15:55:17;98228.66;;;11.82;58.92
48792;BME280;34587;48.816;9.420;2023-04-24T15:57:42;98233.94;;;11.51;61.76
48792;BME280;34587;48.816;9.420;2023-04-24T16:00:08;98239.22;;;11.19;64.37
48792;BME280;34587;48.816;9.420;2023-04-24T16:02:35;98237.91;;;11.33;66.51
48792;BME280;34587;48.816;9.420;2023-04-24T16:05:00;98230.72;;;11.43;66.97
48792;BME280;34587;48.816;9.420;2023-04-24T16:07:25;98221.31;;;11.67;65.30
48792;BME280;34587;48.816;9.420;2023-04-24T16:09:51;98226.41;;;11.98;63.10
48792;BME280;34587;48.816;9.420;2023-04-24T16:12:16;98220.72;;;12.14;62.97
48792;BME280;34587;48.816;9.420;2023-04-24T16:14:42;98217.22;;;12.15;60.76
48792;BME280;34587;48.816;9.420;2023-04-24T16:17:07;98214.75;;;11.85;61.93
48792;BME280;34587;48.816;9.420;2023-04-24T16:19:33;98218.66;;;11.69;61.85
48792;BME280;34587;48.816;9.420;2023-04-24T16:21:59;98203.44;;;11.86;61.15
48792;BME280;34587;48.816;9.420;2023-04-24T16:24:24;98208.38;;;11.94;60.17
48792;BME280;34587;48.816;9.420;2023-04-24T16:26:51;98206.25;;;12.06;59.45
48792;BME280;34587;48.816;9.420;2023-04-24T16:29:17;98197.19;;;12.18;58.28
48792;BME280;34587;48.816;9.420;2023-04-24T16:31:43;98204.09;;;12.44;58.29
48792;BME280;34587;48.816;9.420;2023-04-24T16:34:08;98201.13;;;12.30;58.07
48792;BME280;34587;48.816;9.420;2023-04-24T16:36:35;98197.84;;;12.25;57.16
48792;BME280;34587;48.816;9.420;2023-04-24T16:39:00;98202.19;;;12.24;58.46
48792;BME280;34587;48.816;9.420;2023-04-24T16:41:26;98201.81;;;12.10;57.25
48792;BME280;34587;48.816;9.420;2023-04-24T16:43:53;98206.72;;;12.18;57.43
48792;BME280;34587;48.816;9.420;2023-04-24T16:46:19;98194.81;;;12.37;56.71
48792;BME280;34587;48.816;9.420;2023-04-24T16:48:45;98206.22;;;12.33;57.25
48792;BME280;34587;48.816;9.420;2023-04-24T16:51:10;98196.88;;;12.52;57.35
48792;BME280;34587;48.816;9.420;2023-04-24T16:53:35;98203.97;;;12.47;57.09
48792;BME280;34587;48.816;9.420;2023-04-24T16:56:02;98205.69;;;12.23;57.57
48792;BME280;34587;48.816;9.420;2023-04-24T16:58:27;98210.25;;;11.90;58.38
48792;BME280;34587;48.816;9.420;2023-04-24T17:00:53;98212.94;;;12.14;57.62
48792;BME280;34587;48.816;9.420;2023-04-24T17:03:18;98214.03;;;11.78;58.31
48792;BME280;34587;48.816;9.420;2023-04-24T17:05:43;98214.88;;;11.79;59.22
48792;BME280;34587;48.816;9.420;2023-04-24T17:08:09;98216.44;;;11.86;59.73
48792;BME280;34587;48.816;9.420;2023-04-24T17:10:34;98204.91;;;11.95;59.86
48792;BME280;34587;48.816;9.420;2023-04-24T17:12:59;98207.16;;;12.05;59.24
48792;BME280;34587;48.816;9.420;2023-04-24T17:15:25;98204.00;;;11.68;59.93
48792;BME280;34587;48.816;9.420;2023-04-24T17:17:50;98204.63;;;11.76;59.86